Time;durP1;ratioP1;P1;durP2;ratioP2;P2;SDS_P1;SDS_P2;PMS_P1;PMS_P2;Temp;Humidity;BMP_temperature;BMP_pressure;BME280_temperature;BME280_humidity;BME280_pressure;Samples;Min_cycle;Max_cycle;Signal;HPM_P1;HPM_P2
2021/05/24 00:01:09;;;;;;;3.90;3.40;;;7.10;93.10;;;;;;5006668;28;20458;-79
2021/05/24 00:03:52;;;;;;;4.40;4.00;;;6.90;93.60;;;;;;5009828;28;20444;-81
2021/05/24 00:06:27;;;;;;;3.80;3.40;;;6.90;94.30;;;;;;5009855;28;20456;-81
2021/05/24 00:09:02;;;;;;;3.53;3.23;;;6.80;94.60;;;;;;5004235;28;20471;-82
2021/05/24 00:11:49;;;;;;;6.40;3.77;;;6.80;95.00;;;;;;4999519;28;20481;-81
2021/05/24 00:14:26;;;;;;;4.33;3.60;;;6.90;96.60;;;;;;4996256;28;20678;-81
2021/05/24 00:17:01;;;;;;;3.50;3.20;;;6.80;95.40;;;;;;4995375;28;20462;-82
2021/05/24 00:19:40;;;;;;;6.10;3.50;;;6.80;96.10;;;;;;4996396;28;20464;-80
2021/05/24 00:22:29;;;;;;;5.67;3.47;;;6.70;96.90;;;;;;5000794;28;20482;-80
2021/05/24 00:25:09;;;;;;;4.23;3.47;;;6.70;98.10;;;;;;4998024;28;20462;-81
2021/05/24 00:27:44;;;;;;;3.53;3.23;;;6.80;97.50;;;;;;5003134;28;20455;-81
2021/05/24 00:30:20;;;;;;;3.80;3.43;;;6.70;97.20;;;;;;4993605;28;21054;-79
2021/05/24 00:32:55;;;;;;;4.00;3.60;;;6.70;97.90;;;;;;4991190;28;20455;-81
2021/05/24 00:35:39;;;;;;;4.13;3.70;;;6.60;97.80;;;;;;4994312;28;20458;-82
2021/05/24 00:38:15;;;;;;;4.50;4.10;;;6.70;99.70;;;;;;4994558;28;20481;-82
2021/05/24 00:40:51;;;;;;;4.27;3.13;;;6.60;99.10;;;;;;4993694;28;20996;-81
2021/05/24 00:43:26;;;;;;;4.23;3.10;;;6.50;99.90;;;;;;4997439;28;20492;-81
2021/05/24 00:46:00;;;;;;;4.33;3.10;;;6.60;99.90;;;;;;4990860;28;20459;-79
2021/05/24 00:48:35;;;;;;;4.00;3.53;;;6.50;99.90;;;;;;4991679;28;20525;-81
2021/05/24 00:51:11;;;;;;;3.63;3.40;;;6.40;99.90;;;;;;4993454;28;20637;-81
2021/05/24 00:53:46;;;;;;;5.90;4.07;;;6.40;99.90;;;;;;4994189;28;20543;-81
2021/05/24 00:56:22;;;;;;;5.43;3.90;;;6.40;99.90;;;;;;4990834;28;20499;-80
2021/05/24 00:58:58;;;;;;;3.50;3.20;;;6.50;99.90;;;;;;4987197;28;20463;-80
2021/05/24 01:01:33;;;;;;;4.30;3.90;;;6.40;99.90;;;;;;4991130;28;20591;-81
2021/05/24 01:04:07;;;;;;;3.90;3.60;;;6.40;99.90;;;;;;4985667;28;20512;-81
2021/05/24 01:06:43;;;;;;;5.43;4.17;;;6.50;99.90;;;;;;4985866;28;20463;-81
2021/05/24 01:09:18;;;;;;;6.47;4.00;;;6.50;99.90;;;;;;4992125;28;21036;-81
2021/05/24 01:11:54;;;;;;;4.47;4.07;;;6.40;99.90;;;;;;4987370;28;20498;-79
2021/05/24 01:14:30;;;;;;;4.83;3.77;;;6.20;99.90;;;;;;4998844;28;20874;-80
2021/05/24 01:17:05;;;;;;;4.83;4.27;;;6.30;99.90;;;;;;4988345;28;20487;-80
2021/05/24 01:19:45;;;;;;;4.50;3.97;;;6.20;99.90;;;;;;4993213;28;20458;-80
2021/05/24 01:22:23;;;;;;;5.00;4.50;;;6.10;99.90;;;;;;4993843;28;20490;-80
2021/05/24 01:24:55;;;;;;;4.00;3.60;;;6.20;99.90;;;;;;5005870;28;20529;-79
2021/05/24 01:27:30;;;;;;;5.87;4.20;;;6.20;99.90;;;;;;5000347;28;20447;-80
2021/05/24 01:30:05;;;;;;;4.40;3.73;;;6.10;99.90;;;;;;4999395;28;20520;-80
2021/05/24 01:32:40;;;;;;;4.57;4.17;;;6.00;99.90;;;;;;4998277;28;20445;-80
2021/05/24 01:35:15;;;;;;;5.17;3.97;;;6.10;99.90;;;;;;5001026;28;20465;-81
2021/05/24 01:37:50;;;;;;;4.30;3.90;;;6.10;99.90;;;;;;4996567;28;20451;-79
2021/05/24 01:40:32;;;;;;;4.13;3.73;;;6.10;99.90;;;;;;4998419;28;20500;-79
2021/05/24 01:43:07;;;;;;;5.43;4.00;;;6.20;99.90;;;;;;4996706;28;20479;-79
2021/05/24 01:45:42;;;;;;;4.23;3.83;;;6.10;99.90;;;;;;5005282;28;20473;-80
2021/05/24 01:48:16;;;;;;;3.83;3.53;;;6.00;99.90;;;;;;5000558;28;20461;-81
2021/05/24 01:50:52;;;;;;;5.37;3.70;;;6.10;99.90;;;;;;5000467;28;20456;-81
2021/05/24 01:53:28;;;;;;;4.00;3.30;;;6.10;99.90;;;;;;4990422;28;20488;-80
2021/05/24 01:56:02;;;;;;;3.47;3.10;;;6.20;99.90;;;;;;5000090;28;20540;-80
2021/05/24 01:58:37;;;;;;;3.93;3.53;;;6.10;99.90;;;;;;4991667;28;20466;-80
2021/05/24 02:01:16;;;;;;;3.90;3.60;;;6.20;99.90;;;;;;4996655;28;20476;-80
2021/05/24 02:04:00;;;;;;;4.03;3.63;;;6.20;99.90;;;;;;4994747;28;20470;-80
2021/05/24 02:06:34;;;;;;;3.53;3.23;;;6.20;99.90;;;;;;4997331;28;20444;-80
2021/05/24 02:09:11;;;;;;;3.20;3.00;;;6.20;99.90;;;;;;4986903;28;20477;-79
2021/05/24 02:11:46;;;;;;;3.33;3.03;;;6.30;99.90;;;;;;4991505;28;20543;-80
2021/05/24 02:14:20;;;;;;;3.63;3.20;;;6.30;99.90;;;;;;4991070;28;20458;-79
2021/05/24 02:16:56;;;;;;;3.17;2.87;;;6.30;99.90;;;;;;4991844;28;20450;-80
2021/05/24 02:19:31;;;;;;;3.60;3.30;;;6.30;99.90;;;;;;4986446;28;21099;-80
2021/05/24 02:22:05;;;;;;;3.53;3.20;;;6.20;99.90;;;;;;4992967;28;20499;-80
2021/05/24 02:24:41;;;;;;;6.53;3.50;;;6.40;99.90;;;;;;4989364;28;20838;-79
2021/05/24 02:27:16;;;;;;;4.03;3.03;;;6.40;99.90;;;;;;4985222;28;21000;-80
2021/05/24 02:29:51;;;;;;;3.20;2.90;;;6.40;99.90;;;;;;4988925;28;21132;-80
2021/05/24 02:32:25;;;;;;;4.87;3.23;;;6.40;99.90;;;;;;4991666;28;20463;-80
2021/05/24 02:35:00;;;;;;;2.93;2.73;;;6.50;99.90;;;;;;4991257;28;20480;-81
2021/05/24 02:37:37;;;;;;;5.20;2.80;;;6.50;99.90;;;;;;4993067;28;20569;-80
2021/05/24 02:40:14;;;;;;;4.80;2.73;;;6.40;99.90;;;;;;4986749;28;20525;-80
2021/05/24 02:42:50;;;;;;;3.13;2.80;;;6.50;99.90;;;;;;4996231;28;20477;-81
2021/05/24 02:45:25;;;;;;;3.00;2.70;;;6.40;99.90;;;;;;4996364;28;20455;-81
2021/05/24 02:48:00;;;;;;;2.80;2.60;;;6.40;99.90;;;;;;4995100;28;20494;-81
2021/05/24 02:50:36;;;;;;;3.57;2.90;;;6.50;99.90;;;;;;4993248;28;20482;-81
2021/05/24 02:53:11;;;;;;;3.47;3.17;;;6.40;99.90;;;;;;4998437;28;20988;-81
2021/05/24 02:55:46;;;;;;;3.53;3.10;;;6.40;99.90;;;;;;4994597;28;20470;-81
2021/05/24 02:58:21;;;;;;;3.03;2.70;;;6.30;99.90;;;;;;4999711;28;20881;-81
2021/05/24 03:00:56;;;;;;;4.43;3.80;;;6.50;99.90;;;;;;4989885;28;22511;-80
2021/05/24 03:03:33;;;;;;;3.43;3.13;;;6.50;99.90;;;;;;4994323;28;20510;-80
2021/05/24 03:06:08;;;;;;;3.37;3.10;;;6.60;99.90;;;;;;4989702;28;20981;-80
2021/05/24 03:08:43;;;;;;;3.63;3.33;;;6.60;99.90;;;;;;5001329;28;20578;-80
2021/05/24 03:11:21;;;;;;;5.90;3.23;;;6.60;99.90;;;;;;4993540;28;20882;-81
2021/05/24 03:13:56;;;;;;;3.53;2.90;;;6.80;99.90;;;;;;4999239;28;20454;-80
2021/05/24 03:16:31;;;;;;;4.00;3.60;;;6.70;99.90;;;;;;4991403;28;20536;-81
2021/05/24 03:19:06;;;;;;;2.73;2.53;;;6.70;99.90;;;;;;5000703;28;20463;-81
2021/05/24 03:21:43;;;;;;;3.23;2.93;;;6.70;99.90;;;;;;4993548;28;20466;-81
2021/05/24 03:24:18;;;;;;;3.13;2.83;;;6.60;99.90;;;;;;4996790;28;21026;-81
2021/05/24 03:26:53;;;;;;;4.93;3.63;;;6.70;99.90;;;;;;4997505;28;20527;-82
2021/05/24 03:29:28;;;;;;;4.63;3.10;;;6.90;99.90;;;;;;4997983;28;20539;-81
2021/05/24 03:32:03;;;;;;;3.13;2.83;;;6.80;99.90;;;;;;4994491;28;20450;-81
2021/05/24 03:34:38;;;;;;;3.40;2.77;;;6.90;99.90;;;;;;5004107;28;20462;-81
2021/05/24 03:37:12;;;;;;;3.70;2.50;;;6.90;99.70;;;;;;4996997;28;20461;-81
2021/05/24 03:39:47;;;;;;;3.10;2.57;;;7.00;99.60;;;;;;4997238;28;20502;-81
2021/05/24 03:42:34;;;;;;;2.63;2.43;;;7.00;98.80;;;;;;4999474;28;20483;-81
2021/05/24 03:45:12;;;;;;;2.77;2.57;;;7.10;98.30;;;;;;5000225;28;20454;-80
2021/05/24 03:47:46;;;;;;;3.40;2.17;;;7.20;97.20;;;;;;4989939;28;20454;-80
2021/05/24 03:50:23;;;;;;;2.37;2.27;;;7.30;95.90;;;;;;4993993;28;20541;-81
2021/05/24 03:52:58;;;;;;;2.63;2.43;;;7.30;95.00;;;;;;4991714;28;20455;-81
2021/05/24 03:55:33;;;;;;;2.83;2.60;;;7.40;94.20;;;;;;4994414;28;20877;-81
2021/05/24 03:58:09;;;;;;;2.53;2.33;;;7.50;93.70;;;;;;4991255;28;20478;-81
2021/05/24 04:00:44;;;;;;;2.10;1.90;;;7.60;92.70;;;;;;4997792;28;20494;-80
2021/05/24 04:03:18;;;;;;;2.73;2.40;;;7.60;92.10;;;;;;4992953;28;20885;-81
2021/05/24 04:05:59;;;;;;;2.90;1.97;;;7.70;92.00;;;;;;4998724;28;20531;-80
2021/05/24 04:08:36;;;;;;;2.40;2.20;;;7.60;91.90;;;;;;4991075;28;20467;-82
2021/05/24 04:11:11;;;;;;;2.90;2.33;;;7.70;91.80;;;;;;4989948;28;20459;-81
2021/05/24 04:13:50;;;;;;;3.80;1.90;;;7.70;91.80;;;;;;4991760;28;20494;-81
2021/05/24 04:16:26;;;;;;;2.90;2.00;;;7.80;91.50;;;;;;4989413;28;20593;-80
2021/05/24 04:19:06;;;;;;;2.47;2.10;;;7.90;91.10;;;;;;4989059;28;20529;-80
2021/05/24 04:21:41;;;;;;;3.60;2.40;;;8.00;90.60;;;;;;4996956;28;20474;-80
2021/05/24 04:24:16;;;;;;;2.10;1.90;;;8.00;90.00;;;;;;4992348;28;20450;-81
2021/05/24 04:26:51;;;;;;;2.27;2.10;;;8.10;89.90;;;;;;4996749;28;20562;-81
2021/05/24 04:29:32;;;;;;;2.70;2.40;;;8.20;89.30;;;;;;4988889;28;20935;-81
2021/05/24 04:32:07;;;;;;;1.70;1.60;;;8.20;88.70;;;;;;4993358;28;20456;-82
2021/05/24 04:34:41;;;;;;;3.00;2.80;;;8.30;88.20;;;;;;4992331;28;20518;-82
2021/05/24 04:37:17;;;;;;;2.70;2.10;;;8.40;87.50;;;;;;4998638;28;20486;-82
2021/05/24 04:39:52;;;;;;;3.80;2.00;;;8.50;87.00;;;;;;4989982;28;20483;-80
2021/05/24 04:42:26;;;;;;;1.93;1.73;;;8.50;87.00;;;;;;4987811;28;21049;-80
2021/05/24 04:45:02;;;;;;;2.20;1.73;;;8.60;86.30;;;;;;4987167;28;20463;-80
2021/05/24 04:47:42;;;;;;;2.90;2.63;;;8.70;86.50;;;;;;4988620;28;20606;-82
2021/05/24 04:50:17;;;;;;;2.43;2.23;;;8.70;85.10;;;;;;4987406;28;20462;-80
2021/05/24 04:52:52;;;;;;;2.60;2.40;;;8.90;84.10;;;;;;4994201;28;20637;-81
2021/05/24 04:55:26;;;;;;;2.40;2.17;;;9.10;83.30;;;;;;4995371;28;20495;-81
2021/05/24 04:58:01;;;;;;;2.90;2.37;;;9.20;82.30;;;;;;4997693;28;20494;-81
2021/05/24 05:00:37;;;;;;;2.20;2.10;;;9.40;81.10;;;;;;4996939;28;20447;-81
2021/05/24 05:03:12;;;;;;;2.33;1.90;;;9.60;80.90;;;;;;5006757;28;20472;-81
2021/05/24 05:05:47;;;;;;;2.20;2.00;;;9.80;79.30;;;;;;5006741;28;20455;-81
2021/05/24 05:08:21;;;;;;;2.97;2.67;;;9.80;78.50;;;;;;5010624;28;20466;-82
2021/05/24 05:10:56;;;;;;;2.13;1.80;;;9.80;79.00;;;;;;5007879;28;20478;-80
2021/05/24 05:13:31;;;;;;;2.10;1.70;;;10.00;77.70;;;;;;5011513;28;20463;-80
2021/05/24 05:16:06;;;;;;;2.40;2.20;;;9.80;78.50;;;;;;5001427;28;20465;-79
2021/05/24 05:18:42;;;;;;;3.50;2.30;;;10.00;77.20;;;;;;5001990;28;20442;-81
2021/05/24 05:21:16;;;;;;;2.07;1.90;;;10.20;76.80;;;;;;4997921;28;20502;-80
2021/05/24 05:23:51;;;;;;;2.33;1.87;;;10.30;76.40;;;;;;4999355;28;20513;-80
2021/05/24 05:26:26;;;;;;;2.60;1.60;;;10.40;76.00;;;;;;5000519;28;20481;-81
2021/05/24 05:29:00;;;;;;;2.40;1.63;;;10.60;75.60;;;;;;5000223;28;20456;-81
2021/05/24 05:31:36;;;;;;;2.60;1.70;;;10.70;75.30;;;;;;5002489;28;20453;-82
2021/05/24 05:34:11;;;;;;;1.70;1.60;;;10.80;74.90;;;;;;4997576;28;21049;-81
2021/05/24 05:36:46;;;;;;;2.40;1.80;;;11.00;74.40;;;;;;4996899;28;20463;-81
2021/05/24 05:39:21;;;;;;;1.47;1.37;;;11.00;74.00;;;;;;4996982;28;20495;-81
2021/05/24 05:41:56;;;;;;;1.60;1.50;;;11.10;73.60;;;;;;4992291;28;20455;-81
2021/05/24 05:44:30;;;;;;;1.47;1.37;;;11.20;73.50;;;;;;4992185;28;20518;-81
2021/05/24 05:47:06;;;;;;;1.57;1.47;;;11.50;72.60;;;;;;4989694;28;20542;-80
2021/05/24 05:49:41;;;;;;;2.20;1.73;;;11.40;71.90;;;;;;4992308;28;20539;-80
2021/05/24 05:52:17;;;;;;;1.30;1.20;;;11.60;72.10;;;;;;4990587;28;20486;-80
2021/05/24 05:54:52;;;;;;;3.50;1.53;;;11.70;71.70;;;;;;4988044;28;20476;-80
2021/05/24 05:57:26;;;;;;;1.57;1.47;;;11.90;71.40;;;;;;4985831;28;20899;-80
2021/05/24 06:00:01;;;;;;;1.27;1.17;;;11.90;70.50;;;;;;4989063;28;20448;-79
2021/05/24 06:02:37;;;;;;;2.63;1.67;;;12.30;70.20;;;;;;4992843;28;20466;-81
2021/05/24 06:05:12;;;;;;;1.53;1.37;;;12.50;69.30;;;;;;4993738;28;20456;-80
2021/05/24 06:07:53;;;;;;;1.60;1.50;;;12.60;69.00;;;;;;4993344;28;20453;-80
2021/05/24 06:10:28;;;;;;;2.30;1.17;;;12.80;68.30;;;;;;4992684;28;20488;-80
2021/05/24 06:13:02;;;;;;;3.33;1.73;;;13.00;68.10;;;;;;4989902;28;20483;-81
2021/05/24 06:15:37;;;;;;;1.83;1.50;;;12.90;67.30;;;;;;4992740;28;20441;-81
2021/05/24 06:18:13;;;;;;;1.33;1.23;;;13.20;67.30;;;;;;4994373;28;20489;-83
2021/05/24 06:20:48;;;;;;;2.60;1.53;;;13.60;66.60;;;;;;4993698;28;20790;-81
2021/05/24 06:23:24;;;;;;;2.20;1.27;;;13.50;65.60;;;;;;4994138;28;20474;-82
2021/05/24 06:25:59;;;;;;;1.20;1.10;;;13.40;64.80;;;;;;4994337;28;20489;-82
2021/05/24 06:28:34;;;;;;;1.30;1.20;;;13.30;65.00;;;;;;4995215;28;20449;-82
2021/05/24 06:31:09;;;;;;;1.37;1.20;;;13.40;65.30;;;;;;4996575;28;20471;-81
2021/05/24 06:33:44;;;;;;;1.20;1.10;;;13.50;64.60;;;;;;4989557;28;20448;-81
2021/05/24 06:36:19;;;;;;;1.40;0.90;;;13.70;64.30;;;;;;5000135;28;20450;-80
2021/05/24 06:39:00;;;;;;;2.27;0.97;;;13.80;64.00;;;;;;4990920;28;20988;-81
2021/05/24 06:41:35;;;;;;;1.73;1.20;;;13.50;63.50;;;;;;4987148;28;21014;-80
2021/05/24 06:44:11;;;;;;;2.03;1.47;;;13.60;64.20;;;;;;4991935;28;20485;-81
2021/05/24 06:46:47;;;;;;;2.23;1.30;;;13.90;64.10;;;;;;4996100;28;20476;-81
2021/05/24 06:49:24;;;;;;;1.77;1.20;;;14.10;63.50;;;;;;4990211;28;20453;-82
2021/05/24 06:51:58;;;;;;;2.00;1.27;;;14.30;63.00;;;;;;4991351;28;20518;-82
2021/05/24 06:54:36;;;;;;;1.00;1.00;;;14.30;62.50;;;;;;4991682;28;20464;-81
2021/05/24 06:57:11;;;;;;;1.50;1.13;;;14.50;61.70;;;;;;4993406;28;20957;-81
2021/05/24 06:59:46;;;;;;;1.77;1.17;;;14.40;61.80;;;;;;4989457;28;20450;-81
2021/05/24 07:02:21;;;;;;;1.47;1.07;;;15.10;61.50;;;;;;4998687;28;20553;-81
2021/05/24 07:04:59;;;;;;;1.43;1.20;;;14.80;59.70;;;;;;4998219;28;20545;-82
2021/05/24 07:07:34;;;;;;;1.57;1.10;;;15.30;60.00;;;;;;4993259;28;20847;-81
2021/05/24 07:10:10;;;;;;;1.23;1.10;;;15.50;58.60;;;;;;4984242;28;20597;-82
2021/05/24 07:12:45;;;;;;;1.57;1.20;;;15.30;58.20;;;;;;4990963;28;20471;-81
2021/05/24 07:15:19;;;;;;;1.07;0.97;;;15.80;58.20;;;;;;4995759;28;20483;-81
2021/05/24 07:17:55;;;;;;;2.70;1.10;;;15.80;56.90;;;;;;4995614;28;20462;-82
2021/05/24 07:20:31;;;;;;;2.00;1.17;;;15.80;56.20;;;;;;5002233;28;20459;-82
2021/05/24 07:23:06;;;;;;;1.33;1.10;;;16.00;55.90;;;;;;5004675;28;20463;-82
2021/05/24 07:25:41;;;;;;;3.27;1.00;;;16.20;55.40;;;;;;5006774;28;20459;-82
2021/05/24 07:28:16;;;;;;;1.43;1.33;;;15.90;54.40;;;;;;4999313;28;20465;-82
2021/05/24 07:30:56;;;;;;;2.50;1.30;;;15.90;54.80;;;;;;4999689;28;20473;-81
2021/05/24 07:33:31;;;;;;;1.30;1.10;;;16.00;54.70;;;;;;5005052;28;20527;-80
2021/05/24 07:36:08;;;;;;;4.80;1.10;;;15.90;54.10;;;;;;4998622;28;20451;-82
2021/05/24 07:38:42;;;;;;;2.73;1.00;;;16.20;54.10;;;;;;4999335;28;20447;-81
2021/05/24 07:41:17;;;;;;;1.63;1.17;;;16.30;54.10;;;;;;5005414;28;20491;-81
2021/05/24 07:43:53;;;;;;;1.40;1.30;;;16.60;53.60;;;;;;4999314;28;20553;-81
2021/05/24 07:46:25;;;;;;;4.43;0.97;;;16.80;53.00;;;;;;4994985;28;20467;-82
2021/05/24 07:49:00;;;;;;;1.10;1.00;;;16.50;52.60;;;;;;4997325;28;20513;-82
2021/05/24 07:51:37;;;;;;;4.40;1.40;;;16.70;52.90;;;;;;5002589;28;20448;-81
2021/05/24 07:54:12;;;;;;;1.37;1.20;;;16.80;52.80;;;;;;5004573;28;20446;-83
2021/05/24 07:56:47;;;;;;;1.37;1.27;;;16.70;52.30;;;;;;5000241;28;20450;-83
2021/05/24 07:59:22;;;;;;;1.40;1.30;;;16.60;52.20;;;;;;4997738;28;20462;-83
2021/05/24 08:02:00;;;;;;;2.37;1.40;;;16.70;52.60;;;;;;5007738;28;20547;-83
2021/05/24 08:04:35;;;;;;;1.90;1.33;;;16.50;52.30;;;;;;4995413;28;20446;-83
2021/05/24 08:07:11;;;;;;;1.17;1.10;;;16.80;52.40;;;;;;5000307;28;20462;-82
2021/05/24 08:09:47;;;;;;;1.10;1.00;;;16.80;51.70;;;;;;4997664;28;20501;-82
2021/05/24 08:12:22;;;;;;;1.33;1.03;;;17.00;52.10;;;;;;4992327;28;20465;-82
2021/05/24 08:14:56;;;;;;;1.70;1.10;;;17.00;52.40;;;;;;5002287;28;20521;-83
2021/05/24 08:17:31;;;;;;;1.13;0.83;;;17.30;52.00;;;;;;5007369;28;20471;-82
2021/05/24 08:20:06;;;;;;;3.80;0.90;;;17.20;51.30;;;;;;4996859;28;20470;-81
2021/05/24 08:22:43;;;;;;;1.50;1.10;;;17.20;50.60;;;;;;4996631;28;20577;-81
2021/05/24 08:25:19;;;;;;;0.87;0.80;;;16.90;50.60;;;;;;5000647;28;20461;-82
2021/05/24 08:27:53;;;;;;;1.00;0.80;;;17.10;51.20;;;;;;4997624;28;20473;-82
2021/05/24 08:30:28;;;;;;;0.90;0.90;;;17.20;50.40;;;;;;4991633;28;20450;-82
2021/05/24 08:33:03;;;;;;;1.50;1.20;;;17.20;50.00;;;;;;4993970;28;20515;-82
2021/05/24 08:35:38;;;;;;;1.10;0.73;;;17.40;50.80;;;;;;4991978;28;20514;-82
2021/05/24 08:38:14;;;;;;;0.70;0.70;;;17.40;49.90;;;;;;4994899;28;20460;-82
2021/05/24 08:40:49;;;;;;;1.00;0.80;;;17.10;49.50;;;;;;4995825;28;20522;-82
2021/05/24 08:43:24;;;;;;;1.23;1.10;;;17.10;49.80;;;;;;5016495;28;20499;-82
2021/05/24 08:46:01;;;;;;;4.57;0.90;;;17.30;49.30;;;;;;5015986;28;20530;-82
2021/05/24 08:48:36;;;;;;;1.73;0.83;;;17.00;48.90;;;;;;5016193;28;20457;-83
2021/05/24 08:51:12;;;;;;;1.40;0.93;;;17.40;49.30;;;;;;5010598;28;20531;-82
2021/05/24 08:53:55;;;;;;;2.93;1.17;;;17.80;48.50;;;;;;5019777;28;20464;-80
2021/05/24 08:56:30;;;;;;;3.73;0.83;;;17.80;48.10;;;;;;5009988;28;20994;-81
2021/05/24 08:59:06;;;;;;;1.40;0.53;;;18.00;48.10;;;;;;4992490;28;20451;-81
2021/05/24 09:01:41;;;;;;;1.63;0.87;;;18.00;47.60;;;;;;4996838;28;20471;-81
2021/05/24 09:04:16;;;;;;;1.47;0.90;;;18.20;47.40;;;;;;4993047;28;20566;-81
2021/05/24 09:06:53;;;;;;;1.20;0.90;;;18.20;47.20;;;;;;4990398;28;20465;-81
2021/05/24 09:09:30;;;;;;;3.50;0.97;;;18.80;48.00;;;;;;4995699;28;20595;-82
2021/05/24 09:12:09;;;;;;;1.60;1.10;;;19.30;47.50;;;;;;4991876;28;20897;-82
2021/05/24 09:14:57;;;;;;;1.10;0.70;;;19.50;47.00;;;;;;4992496;28;20807;-82
2021/05/24 09:17:47;;;;;;;1.03;0.70;;;19.90;47.20;;;;;;4990327;28;20479;-82
2021/05/24 09:20:38;;;;;;;1.23;0.93;;;20.50;45.70;;;;;;4987913;28;20562;-82
2021/05/24 09:23:22;;;;;;;1.50;0.80;;;20.40;45.10;;;;;;4993894;28;20637;-82
2021/05/24 09:26:13;;;;;;;1.50;0.57;;;20.30;44.60;;;;;;4994020;28;20514;-82
2021/05/24 09:28:51;;;;;;;0.73;0.57;;;19.80;42.80;;;;;;4991848;28;20970;-82
2021/05/24 09:31:32;;;;;;;0.60;0.60;;;20.20;42.50;;;;;;4991125;28;20462;-82
2021/05/24 09:34:12;;;;;;;1.50;0.50;;;20.40;42.60;;;;;;4995678;28;20492;-82
2021/05/24 09:36:47;;;;;;;0.90;0.60;;;20.60;42.20;;;;;;4988277;28;20478;-81
2021/05/24 09:39:22;;;;;;;0.93;0.70;;;20.50;42.20;;;;;;4993726;28;20510;-81
2021/05/24 09:42:00;;;;;;;1.13;0.80;;;20.50;41.90;;;;;;4984674;28;20467;-82
2021/05/24 09:44:35;;;;;;;0.60;0.60;;;20.80;42.00;;;;;;4990698;28;20441;-82
2021/05/24 09:47:10;;;;;;;0.90;0.70;;;21.10;42.40;;;;;;4988185;28;20459;-82
2021/05/24 09:49:54;;;;;;;1.23;0.57;;;20.60;42.50;;;;;;4994244;28;20488;-82
2021/05/24 09:52:48;;;;;;;4.60;0.97;;;20.30;42.30;;;;;;4988202;28;20468;-81
2021/05/24 09:55:25;;;;;;;1.70;0.93;;;20.30;42.60;;;;;;5000509;28;20480;-81
2021/05/24 09:58:04;;;;;;;2.80;0.80;;;20.80;42.70;;;;;;4990927;28;20455;-81
2021/05/24 10:00:47;;;;;;;1.90;0.90;;;20.80;42.90;;;;;;4992200;28;20448;-81
2021/05/24 10:03:30;;;;;;;0.83;0.67;;;21.00;43.00;;;;;;4987779;28;20729;-81
2021/05/24 10:06:04;;;;;;;1.13;0.77;;;21.50;43.00;;;;;;4992929;28;20459;-81
2021/05/24 10:08:39;;;;;;;1.30;1.03;;;21.90;42.90;;;;;;4988858;28;20518;-80
2021/05/24 10:11:15;;;;;;;1.40;1.20;;;22.00;43.00;;;;;;4997621;28;20444;-82
2021/05/24 10:13:52;;;;;;;2.13;0.83;;;21.70;42.30;;;;;;4990954;28;20475;-82
2021/05/24 10:16:31;;;;;;;1.67;0.97;;;21.90;42.90;;;;;;4990109;28;21730;-81
2021/05/24 10:19:07;;;;;;;0.80;0.63;;;22.10;42.90;;;;;;4992879;28;20467;-80
2021/05/24 10:21:42;;;;;;;2.87;1.03;;;22.30;43.30;;;;;;4994603;28;20482;-80
2021/05/24 10:24:18;;;;;;;0.93;0.80;;;22.30;43.00;;;;;;4991838;28;20471;-81
2021/05/24 10:26:55;;;;;;;1.50;0.90;;;22.70;43.40;;;;;;4991199;28;20457;-81
2021/05/24 10:29:38;;;;;;;1.60;0.97;;;22.60;42.90;;;;;;4992316;28;20446;-80
2021/05/24 10:32:14;;;;;;;2.03;1.27;;;22.60;42.80;;;;;;4995770;28;20468;-80
2021/05/24 10:34:48;;;;;;;0.80;0.67;;;22.60;43.30;;;;;;5000794;28;20454;-80
2021/05/24 10:37:23;;;;;;;3.07;1.00;;;22.40;42.80;;;;;;5009996;28;20460;-80
2021/05/24 10:40:03;;;;;;;1.23;0.73;;;22.00;42.80;;;;;;5003489;28;20537;-80
2021/05/24 10:42:48;;;;;;;2.30;0.80;;;21.90;43.40;;;;;;5000619;28;20463;-80
2021/05/24 10:45:25;;;;;;;1.13;0.90;;;22.20;43.10;;;;;;4999649;28;21055;-80
2021/05/24 10:48:07;;;;;;;2.43;1.27;;;21.70;43.20;;;;;;4998070;28;20445;-81
2021/05/24 10:50:42;;;;;;;2.13;0.90;;;21.80;43.90;;;;;;4992943;28;20464;-80
2021/05/24 10:53:32;;;;;;;1.47;0.63;;;21.80;43.60;;;;;;4992548;28;20568;-82
2021/05/24 10:56:22;;;;;;;1.70;1.60;;;22.00;43.30;;;;;;4998232;28;20520;-80
2021/05/24 10:58:57;;;;;;;1.67;1.40;;;21.70;42.80;;;;;;5001862;28;20474;-80
2021/05/24 11:01:53;;;;;;;0.80;0.60;;;21.30;42.80;;;;;;4992844;28;20448;-80
2021/05/24 11:04:56;;;;;;;1.53;0.70;;;21.30;42.20;;;;;;4990613;28;20559;-80
2021/05/24 11:07:34;;;;;;;1.23;1.13;;;21.10;42.30;;;;;;4994558;28;20450;-81
2021/05/24 11:10:53;;;;;;;1.57;1.00;;;21.20;42.70;;;;;;4995387;28;20464;-80
2021/05/24 11:13:32;;;;;;;1.10;1.00;;;21.10;42.70;;;;;;4946683;29;20462;-80
2021/05/24 11:16:19;;;;;;;2.00;0.90;;;21.40;42.30;;;;;;4952424;28;20465;-81
2021/05/24 11:19:08;;;;;;;1.20;1.07;;;21.70;42.50;;;;;;4985960;28;20461;-82
2021/05/24 11:21:49;;;;;;;0.80;0.73;;;22.00;42.40;;;;;;4997056;28;20463;-79
2021/05/24 11:27:17;;;;;;;1.27;1.17;;;22.00;42.40;;;;;;4994777;28;20938;-80
2021/05/24 11:29:53;;;;;;;1.10;0.90;;;21.90;42.40;;;;;;4993348;28;20539;-81
2021/05/24 11:32:29;;;;;;;1.23;0.80;;;21.90;42.80;;;;;;4988957;28;20502;-81
2021/05/24 11:35:24;;;;;;;0.80;0.70;;;22.20;42.60;;;;;;4988083;28;20535;-81
2021/05/24 11:38:00;;;;;;;1.60;0.87;;;22.10;42.70;;;;;;4991970;28;20449;-80
2021/05/24 11:40:34;;;;;;;1.13;0.70;;;21.90;42.70;;;;;;4985397;28;20583;-81
2021/05/24 11:43:15;;;;;;;1.40;0.97;;;21.90;42.90;;;;;;4990920;28;20465;-81
2021/05/24 11:45:55;;;;;;;1.70;0.80;;;21.60;42.50;;;;;;4985130;28;20489;-80
2021/05/24 11:48:37;;;;;;;1.67;0.97;;;21.90;43.00;;;;;;4991246;28;20455;-81
2021/05/24 11:51:16;;;;;;;1.10;0.90;;;22.00;43.10;;;;;;4993232;28;20454;-81
2021/05/24 11:54:06;;;;;;;0.97;0.87;;;21.60;43.30;;;;;;4989859;28;20455;-81
2021/05/24 11:56:58;;;;;;;0.80;0.70;;;22.10;43.30;;;;;;4986369;28;20464;-80
2021/05/24 11:59:35;;;;;;;0.93;0.90;;;22.00;43.20;;;;;;4986960;28;20443;-80
2021/05/24 12:02:10;;;;;;;2.60;0.80;;;22.10;43.20;;;;;;4987524;28;20474;-81
2021/05/24 12:04:47;;;;;;;0.97;0.70;;;21.70;43.30;;;;;;4993658;28;20584;-81
2021/05/24 12:07:23;;;;;;;2.30;0.80;;;21.50;43.60;;;;;;4994324;28;20500;-79
2021/05/24 12:10:00;;;;;;;1.53;0.60;;;21.40;43.90;;;;;;4990930;28;20458;-81
2021/05/24 12:12:37;;;;;;;1.17;0.70;;;21.80;43.90;;;;;;4989418;28;20515;-80
2021/05/24 12:15:15;;;;;;;2.67;1.13;;;21.60;44.10;;;;;;4989633;28;20814;-80
2021/05/24 12:17:52;;;;;;;4.70;1.67;;;22.20;43.90;;;;;;5004225;28;20455;-80
2021/05/24 12:20:27;;;;;;;1.10;1.00;;;22.40;43.40;;;;;;5009420;28;20479;-81
2021/05/24 12:23:02;;;;;;;1.73;1.10;;;22.20;43.10;;;;;;5007544;28;20581;-80
2021/05/24 12:25:38;;;;;;;1.00;0.80;;;22.50;42.90;;;;;;5008956;28;20459;-80
2021/05/24 12:28:12;;;;;;;0.90;0.90;;;22.50;43.20;;;;;;5009724;28;20459;-81
2021/05/24 12:30:52;;;;;;;1.37;0.80;;;22.80;43.20;;;;;;5001961;28;20465;-80
2021/05/24 12:33:28;;;;;;;1.07;0.80;;;23.60;43.40;;;;;;5001697;28;20497;-80
2021/05/24 12:36:04;;;;;;;0.80;0.60;;;23.80;43.10;;;;;;5000542;28;20446;-81
2021/05/24 12:38:45;;;;;;;2.00;0.80;;;24.10;42.70;;;;;;4996334;28;20455;-81
2021/05/24 12:41:22;;;;;;;0.60;0.60;;;23.80;42.60;;;;;;5011598;28;20463;-81
2021/05/24 12:44:01;;;;;;;0.80;0.80;;;24.10;42.70;;;;;;5006218;28;20471;-80
2021/05/24 12:46:46;;;;;;;1.90;0.60;;;23.50;42.70;;;;;;4994960;28;20564;-81
2021/05/24 12:49:23;;;;;;;1.60;0.83;;;23.60;42.50;;;;;;4987031;28;20462;-81
2021/05/24 12:52:05;;;;;;;0.73;0.73;;;23.10;42.20;;;;;;4997701;28;20462;-80
2021/05/24 12:54:51;;;;;;;1.30;1.20;;;23.60;42.70;;;;;;4992054;28;20459;-80
2021/05/24 12:57:34;;;;;;;1.57;0.70;;;23.70;42.20;;;;;;4993731;28;20562;-80
2021/05/24 13:00:11;;;;;;;2.00;1.00;;;24.40;42.20;;;;;;4994391;28;20459;-80
2021/05/24 13:02:53;;;;;;;0.90;0.77;;;24.60;42.20;;;;;;4991939;28;20471;-80
2021/05/24 13:05:29;;;;;;;0.87;0.60;;;24.60;42.50;;;;;;4998264;28;20553;-80
2021/05/24 13:08:05;;;;;;;1.10;0.83;;;24.80;42.70;;;;;;4994764;28;20903;-81
2021/05/24 13:10:48;;;;;;;1.27;1.00;;;24.30;41.60;;;;;;4989006;28;20448;-81
2021/05/24 13:13:27;;;;;;;1.40;0.70;;;24.60;42.50;;;;;;4992277;28;20452;-80
2021/05/24 13:16:19;;;;;;;4.57;0.73;;;24.20;42.60;;;;;;4993267;28;20471;-80
2021/05/24 13:28:22;;;;;;;0.90;0.57;;;22.90;43.10;;;;;;4986547;28;20470;-80
2021/05/24 13:31:03;;;;;;;2.20;0.67;;;23.00;42.70;;;;;;4991299;28;20982;-80
2021/05/24 13:33:40;;;;;;;1.27;1.00;;;23.00;42.30;;;;;;4989963;28;20538;-80
2021/05/24 13:36:28;;;;;;;3.17;0.73;;;23.10;42.00;;;;;;4990908;28;20928;-81
2021/05/24 13:39:13;;;;;;;3.03;0.60;;;23.00;41.80;;;;;;4985816;28;21029;-81
2021/05/24 13:41:50;;;;;;;0.90;0.67;;;23.00;42.00;;;;;;4987406;28;20469;-80
2021/05/24 13:44:27;;;;;;;0.70;0.60;;;23.20;42.30;;;;;;4988358;28;20487;-84
2021/05/24 13:47:05;;;;;;;1.90;0.80;;;23.90;42.20;;;;;;4993275;28;20459;-81
2021/05/24 13:49:39;;;;;;;1.13;0.90;;;24.10;41.90;;;;;;4992025;28;20462;-80
2021/05/24 13:52:14;;;;;;;3.53;1.00;;;23.50;41.70;;;;;;4986711;28;20475;-79
2021/05/24 13:54:49;;;;;;;0.83;0.60;;;23.30;42.20;;;;;;4985470;28;21004;-80